Wetterdaten: Woche 23.05.16 - 29.05.16 (KW21)
Datum Zeit Temp. A. Feuchte A. Luftdruck Regen Wind Richtung Sonnenschein ET UV Solar Taupunkt Windchill Windben Empfang
23.05.2016 00:00 18,1 C 70 % 1005,3 hPa 0,0 l/m 5,1 km/h (1 Bft) O-NO 0,00 h 0,000 mm 0,0 UV-I 0 W/m 12,6 C 18,0 C 7,2 km/h (2 Bft) 99,01 %
23.05.2016 01:00 15,3 C 82 % 1005,5 hPa 0,0 l/m 2,3 km/h (1 Bft) NO 0,00 h 0,025 mm 0,0 UV-I 0 W/m 12,2 C 15,3 C 3,3 km/h (1 Bft) 98,38 %
23.05.2016 02:00 15,0 C 84 % 1005,9 hPa 0,0 l/m 4,1 km/h (1 Bft) S 0,00 h 0,000 mm 0,0 UV-I 0 W/m 12,2 C 14,9 C 6,5 km/h (2 Bft) 98,98 %
23.05.2016 03:00 14,7 C 86 % 1006,3 hPa 0,0 l/m 8,1 km/h (2 Bft) SW 0,00 h 0,000 mm 0,0 UV-I 0 W/m 12,3 C 13,7 C 11,3 km/h (2 Bft) 98,92 %
23.05.2016 04:00 15,4 C 81 % 1006,8 hPa 0,0 l/m 12,9 km/h (3 Bft) SW 0,00 h 0,026 mm 0,0 UV-I 0 W/m 12,1 C 12,5 C 17,6 km/h (3 Bft) 98,59 %
23.05.2016 05:00 15,2 C 81 % 1007,2 hPa 0,0 l/m 14,4 km/h (3 Bft) W-SW 0,05 h 0,025 mm 0,0 UV-I 14 W/m 12,1 C 11,7 C 20,0 km/h (4 Bft) 98,33 %
23.05.2016 06:00 15,4 C 80 % 1007,5 hPa 0,0 l/m 12,0 km/h (2 Bft) W-SW 0,47 h 0,051 mm 0,0 UV-I 113 W/m 12,0 C 12,8 C 17,1 km/h (3 Bft) 98,79 %
23.05.2016 07:00 16,4 C 74 % 1007,5 hPa 0,0 l/m 12,5 km/h (3 Bft) W-SW 0,88 h 0,102 mm 0,7 UV-I 242 W/m 11,8 C 13,8 C 18,2 km/h (3 Bft) 98,57 %
23.05.2016 08:00 17,1 C 69 % 1007,2 hPa 0,0 l/m 9,6 km/h (2 Bft) W-SW 0,85 h 0,177 mm 1,4 UV-I 412 W/m 11,4 C 15,7 C 14,4 km/h (3 Bft) 98,61 %
23.05.2016 09:00 18,0 C 68 % 1006,8 hPa 0,0 l/m 6,5 km/h (2 Bft) W-SW 0,98 h 0,254 mm 2,2 UV-I 475 W/m 11,9 C 17,5 C 10,5 km/h (2 Bft) 98,45 %
23.05.2016 10:00 18,2 C 68 % 1006,4 hPa 0,0 l/m 5,9 km/h (2 Bft) W-SW 0,80 h 0,305 mm 2,7 UV-I 458 W/m 12,2 C 17,9 C 9,6 km/h (2 Bft) 99,26 %
23.05.2016 11:00 18,2 C 68 % 1006,1 hPa 0,0 l/m 4,7 km/h (1 Bft) W 0,13 h 0,305 mm 3,0 UV-I 412 W/m 12,3 C 18,1 C 8,0 km/h (2 Bft) 98,25 %
23.05.2016 12:00 18,5 C 68 % 1005,9 hPa 0,0 l/m 5,1 km/h (1 Bft) W-SW 0,08 h 0,254 mm 2,9 UV-I 408 W/m 12,6 C 18,3 C 8,4 km/h (2 Bft) 99,22 %
23.05.2016 13:00 18,6 C 69 % 1005,7 hPa 0,0 l/m 5,9 km/h (2 Bft) W 0,00 h 0,254 mm 2,2 UV-I 351 W/m 12,8 C 18,2 C 10,0 km/h (2 Bft) 98,12 %
23.05.2016 14:00 19,2 C 67 % 1005,5 hPa 0,0 l/m 7,8 km/h (2 Bft) W 0,38 h 0,229 mm 2,8 UV-I 502 W/m 12,9 C 18,5 C 13,5 km/h (3 Bft) 99,22 %
23.05.2016 15:00 17,1 C 77 % 1005,7 hPa 2,0 l/m 11,8 km/h (2 Bft) W-SW 0,00 h 0,304 mm 0,0 UV-I 32 W/m 12,9 C 14,8 C 17,3 km/h (3 Bft) 98,48 %
23.05.2016 16:00 12,3 C 91 % 1007,0 hPa 5,4 l/m 18,5 km/h (3 Bft) SW 0,00 h 0,051 mm 0,6 UV-I 57 W/m 10,9 C 6,8 C 25,9 km/h (4 Bft) 99,10 %
23.05.2016 17:00 10,7 C 91 % 1007,6 hPa 1,2 l/m 18,7 km/h (3 Bft) W-SW 0,00 h 0,051 mm 0,0 UV-I 40 W/m 9,3 C 4,8 C 26,0 km/h (4 Bft) 97,31 %
23.05.2016 18:00 9,5 C 90 % 1008,4 hPa 0,0 l/m 22,3 km/h (4 Bft) SW 0,00 h 0,025 mm 0,0 UV-I 46 W/m 8,1 C 2,0 C 31,0 km/h (5 Bft) 99,26 %
23.05.2016 19:00 9,2 C 88 % 1009,2 hPa 0,0 l/m 20,6 km/h (4 Bft) W-SW 0,00 h 0,051 mm 0,0 UV-I 20 W/m 7,3 C 2,1 C 28,8 km/h (4 Bft) 97,68 %
23.05.2016 20:00 8,9 C 90 % 1009,8 hPa 0,0 l/m 18,1 km/h (3 Bft) W-SW 0,00 h 0,026 mm 0,0 UV-I 5 W/m 7,3 C 2,6 C 25,5 km/h (4 Bft) 99,41 %
23.05.2016 21:00 8,1 C 93 % 1010,3 hPa 1,0 l/m 18,1 km/h (3 Bft) W-SW 0,00 h 0,025 mm 0,0 UV-I 0 W/m 7,1 C 1,7 C 25,2 km/h (4 Bft) 98,31 %
23.05.2016 22:00 8,0 C 93 % 1010,4 hPa 0,2 l/m 17,4 km/h (3 Bft) W-SW 0,00 h 0,025 mm 0,0 UV-I 0 W/m 6,9 C 1,7 C 24,0 km/h (4 Bft) 99,23 %
23.05.2016 23:00 8,2 C 91 % 1010,4 hPa 0,0 l/m 14,3 km/h (3 Bft) W-SW 0,00 h 0,026 mm 0,0 UV-I 0 W/m 6,7 C 3,4 C 19,9 km/h (4 Bft) 98,55 %
24.05.2016 00:00 8,3 C 91 % 1010,5 hPa 0,4 l/m 9,7 km/h (2 Bft) W-SW 0,00 h 0,000 mm 0,0 UV-I 0 W/m 6,9 C 5,9 C 14,6 km/h (3 Bft) 98,46 %
24.05.2016 01:00 8,0 C 94 % 1010,2 hPa 4,4 l/m 10,8 km/h (2 Bft) W-SW 0,00 h 0,000 mm 0,0 UV-I 0 W/m 7,1 C 5,0 C 15,3 km/h (3 Bft) 98,29 %
24.05.2016 02:00 7,8 C 95 % 1009,9 hPa 2,4 l/m 11,4 km/h (2 Bft) W-SW 0,00 h 0,000 mm 0,0 UV-I 0 W/m 7,0 C 4,4 C 16,5 km/h (3 Bft) 98,38 %
24.05.2016 03:00 7,9 C 95 % 1009,6 hPa 0,0 l/m 10,7 km/h (2 Bft) W-SW 0,00 h 0,000 mm 0,0 UV-I 0 W/m 7,1 C 4,9 C 15,2 km/h (3 Bft) 98,75 %
24.05.2016 04:00 7,9 C 95 % 1009,0 hPa 0,4 l/m 11,2 km/h (2 Bft) W-SW 0,00 h 0,000 mm 0,0 UV-I 0 W/m 7,1 C 4,7 C 15,9 km/h (3 Bft) 98,54 %
24.05.2016 05:00 8,0 C 95 % 1009,2 hPa 0,4 l/m 9,9 km/h (2 Bft) W-SW 0,00 h 0,000 mm 0,0 UV-I 5 W/m 7,3 C 5,5 C 14,2 km/h (3 Bft) 98,37 %
24.05.2016 06:00 8,1 C 96 % 1009,0 hPa 0,4 l/m 13,3 km/h (3 Bft) W-SW 0,00 h 0,000 mm 0,0 UV-I 13 W/m 7,5 C 3,8 C 18,6 km/h (3 Bft) 98,69 %
24.05.2016 07:00 8,3 C 95 % 1009,2 hPa 0,6 l/m 13,1 km/h (3 Bft) W-SW 0,00 h 0,000 mm 0,0 UV-I 29 W/m 7,6 C 4,1 C 18,3 km/h (3 Bft) 98,62 %
24.05.2016 08:00 8,6 C 96 % 1009,3 hPa 0,6 l/m 13,6 km/h (3 Bft) SW 0,00 h 0,025 mm 0,0 UV-I 54 W/m 8,0 C 4,2 C 19,3 km/h (3 Bft) 98,47 %
24.05.2016 09:00 9,0 C 96 % 1009,4 hPa 0,6 l/m 11,8 km/h (2 Bft) W-SW 0,00 h 0,026 mm 0,0 UV-I 59 W/m 8,4 C 5,6 C 17,2 km/h (3 Bft) 98,40 %
24.05.2016 10:00 9,4 C 96 % 1009,9 hPa 1,6 l/m 11,5 km/h (2 Bft) SW 0,00 h 0,025 mm 0,3 UV-I 63 W/m 8,8 C 6,2 C 16,7 km/h (3 Bft) 98,33 %
24.05.2016 11:00 9,6 C 96 % 1010,3 hPa 0,6 l/m 14,6 km/h (3 Bft) SW 0,00 h 0,026 mm 0,6 UV-I 103 W/m 9,0 C 5,0 C 20,7 km/h (4 Bft) 98,92 %
24.05.2016 12:00 10,0 C 95 % 1010,5 hPa 0,4 l/m 17,1 km/h (3 Bft) SW 0,00 h 0,050 mm 0,8 UV-I 119 W/m 9,2 C 4,3 C 23,8 km/h (4 Bft) 98,17 %
24.05.2016 13:00 10,4 C 94 % 1010,6 hPa 0,0 l/m 19,2 km/h (3 Bft) SW 0,00 h 0,077 mm 1,1 UV-I 168 W/m 9,4 C 4,2 C 27,6 km/h (4 Bft) 99,06 %
24.05.2016 14:00 10,6 C 93 % 1010,5 hPa 0,0 l/m 20,7 km/h (4 Bft) SW 0,00 h 0,101 mm 0,9 UV-I 121 W/m 9,5 C 4,0 C 29,2 km/h (5 Bft) 98,83 %
24.05.2016 15:00 10,6 C 92 % 1010,8 hPa 0,4 l/m 19,0 km/h (3 Bft) SW 0,00 h 0,076 mm 0,4 UV-I 68 W/m 9,4 C 4,4 C 27,2 km/h (4 Bft) 98,58 %
24.05.2016 16:00 10,5 C 94 % 1010,9 hPa 0,2 l/m 20,3 km/h (4 Bft) W-SW 0,00 h 0,051 mm 0,6 UV-I 98 W/m 9,6 C 3,9 C 29,4 km/h (5 Bft) 98,01 %
24.05.2016 17:00 10,3 C 94 % 1011,2 hPa 0,0 l/m 21,5 km/h (4 Bft) SW 0,00 h 0,051 mm 0,0 UV-I 34 W/m 9,4 C 3,3 C 30,5 km/h (5 Bft) 98,65 %
24.05.2016 18:00 10,2 C 94 % 1011,5 hPa 0,2 l/m 21,1 km/h (4 Bft) SW 0,00 h 0,025 mm 0,0 UV-I 31 W/m 9,3 C 3,3 C 30,5 km/h (5 Bft) 98,06 %
24.05.2016 19:00 10,1 C 94 % 1011,8 hPa 0,2 l/m 19,5 km/h (3 Bft) W-SW 0,00 h 0,026 mm 0,0 UV-I 14 W/m 9,2 C 3,7 C 27,9 km/h (4 Bft) 99,13 %
24.05.2016 20:00 10,2 C 94 % 1012,4 hPa 0,0 l/m 17,8 km/h (3 Bft) SW 0,00 h 0,025 mm 0,0 UV-I 5 W/m 9,2 C 4,3 C 25,8 km/h (4 Bft) 97,84 %
24.05.2016 21:00 10,3 C 93 % 1012,9 hPa 0,0 l/m 19,1 km/h (3 Bft) SW 0,00 h 0,026 mm 0,0 UV-I 0 W/m 9,2 C 4,1 C 26,8 km/h (4 Bft) 99,60 %
24.05.2016 22:00 10,4 C 92 % 1013,0 hPa 0,0 l/m 18,6 km/h (3 Bft) SW 0,00 h 0,025 mm 0,0 UV-I 0 W/m 9,2 C 4,3 C 26,4 km/h (4 Bft) 98,06 %
24.05.2016 23:00 10,4 C 92 % 1013,0 hPa 0,0 l/m 19,0 km/h (3 Bft) W-SW 0,00 h 0,025 mm 0,0 UV-I 0 W/m 9,2 C 4,3 C 26,7 km/h (4 Bft) 99,69 %
25.05.2016 00:00 10,2 C 94 % 1013,1 hPa 0,2 l/m 17,2 km/h (3 Bft) SW 0,00 h 0,000 mm 0,0 UV-I 0 W/m 9,3 C 4,6 C 23,5 km/h (4 Bft) 97,26 %
25.05.2016 01:00 10,2 C 94 % 1013,1 hPa 0,0 l/m 17,0 km/h (3 Bft) W-SW 0,00 h 0,025 mm 0,0 UV-I 0 W/m 9,3 C 4,7 C 23,3 km/h (4 Bft) 99,75 %
25.05.2016 02:00 10,2 C 94 % 1013,1 hPa 0,0 l/m 11,8 km/h (2 Bft) W-SW 0,00 h 0,000 mm 0,0 UV-I 0 W/m 9,3 C 6,9 C 16,5 km/h (3 Bft) 97,55 %
25.05.2016 03:00 10,2 C 94 % 1013,0 hPa 0,0 l/m 11,0 km/h (2 Bft) SW 0,00 h 0,000 mm 0,0 UV-I 0 W/m 9,3 C 7,3 C 15,3 km/h (3 Bft) 99,70 %
25.05.2016 04:00 10,2 C 95 % 1013,0 hPa 0,4 l/m 10,0 km/h (2 Bft) SW 0,00 h 0,000 mm 0,0 UV-I 0 W/m 9,4 C 7,8 C 14,1 km/h (3 Bft) 98,22 %
25.05.2016 05:00 10,2 C 95 % 1013,2 hPa 0,0 l/m 8,4 km/h (2 Bft) W-SW 0,00 h 0,000 mm 0,0 UV-I 2 W/m 9,4 C 8,8 C 12,5 km/h (3 Bft) 99,48 %
25.05.2016 06:00 10,2 C 95 % 1013,6 hPa 0,4 l/m 7,6 km/h (2 Bft) SW 0,00 h 0,000 mm 0,0 UV-I 7 W/m 9,5 C 9,2 C 10,9 km/h (2 Bft) 97,88 %
25.05.2016 07:00 10,3 C 96 % 1014,0 hPa 0,6 l/m 6,5 km/h (2 Bft) SW 0,00 h 0,000 mm 0,0 UV-I 38 W/m 9,7 C 10,0 C 9,0 km/h (2 Bft) 98,93 %
25.05.2016 08:00 10,8 C 95 % 1014,3 hPa 0,0 l/m 6,6 km/h (2 Bft) SW 0,00 h 0,026 mm 0,0 UV-I 76 W/m 10,1 C 10,4 C 9,6 km/h (2 Bft) 97,72 %
25.05.2016 09:00 11,4 C 94 % 1014,4 hPa 0,2 l/m 5,6 km/h (1 Bft) W-SW 0,00 h 0,051 mm 0,7 UV-I 125 W/m 10,4 C 11,1 C 8,3 km/h (2 Bft) 99,25 %
25.05.2016 10:00 12,5 C 91 % 1014,3 hPa 0,0 l/m 5,7 km/h (1 Bft) W 0,15 h 0,076 mm 1,9 UV-I 322 W/m 11,1 C 12,2 C 8,7 km/h (2 Bft) 97,85 %
25.05.2016 11:00 14,0 C 86 % 1014,0 hPa 0,0 l/m 3,3 km/h (1 Bft) NW 0,65 h 0,152 mm 3,2 UV-I 499 W/m 11,7 C 13,9 C 5,8 km/h (2 Bft) 99,09 %
25.05.2016 12:00 14,9 C 83 % 1013,7 hPa 0,0 l/m 2,5 km/h (1 Bft) N-NW 0,38 h 0,254 mm 3,2 UV-I 461 W/m 12,1 C 14,9 C 4,5 km/h (1 Bft) 98,00 %
25.05.2016 13:00 16,2 C 80 % 1013,4 hPa 0,0 l/m 3,0 km/h (1 Bft) NW 0,72 h 0,254 mm 4,6 UV-I 678 W/m 12,6 C 16,1 C 5,2 km/h (1 Bft) 99,17 %
25.05.2016 14:00 17,3 C 78 % 1013,0 hPa 0,0 l/m 3,4 km/h (1 Bft) NW 0,58 h 0,356 mm 4,3 UV-I 639 W/m 13,3 C 17,2 C 5,8 km/h (2 Bft) 97,74 %
25.05.2016 15:00 17,2 C 78 % 1012,9 hPa 0,0 l/m 2,3 km/h (1 Bft) NW 0,00 h 0,355 mm 2,0 UV-I 314 W/m 13,3 C 17,2 C 4,2 km/h (1 Bft) 99,27 %
25.05.2016 16:00 17,3 C 76 % 1012,9 hPa 0,0 l/m 3,2 km/h (1 Bft) W 0,00 h 0,178 mm 1,0 UV-I 207 W/m 13,0 C 17,3 C 5,1 km/h (1 Bft) 97,93 %
25.05.2016 17:00 18,2 C 73 % 1012,6 hPa 0,0 l/m 3,2 km/h (1 Bft) SW 0,72 h 0,127 mm 1,2 UV-I 367 W/m 13,2 C 18,2 C 5,5 km/h (1 Bft) 99,18 %
25.05.2016 18:00 18,2 C 73 % 1012,6 hPa 0,0 l/m 1,5 km/h (1 Bft) NW 0,53 h 0,229 mm 0,7 UV-I 199 W/m 13,3 C 18,2 C 3,3 km/h (1 Bft) 98,14 %
25.05.2016 19:00 18,0 C 74 % 1012,7 hPa 0,0 l/m 1,1 km/h (1 Bft) W-SW 0,35 h 0,127 mm 0,0 UV-I 98 W/m 13,2 C 18,0 C 2,4 km/h (1 Bft) 99,05 %
25.05.2016 20:00 15,8 C 86 % 1012,8 hPa 0,0 l/m 1,0 km/h (0 Bft) W-SW 0,03 h 0,051 mm 0,0 UV-I 19 W/m 13,4 C 15,8 C 1,8 km/h (1 Bft) 98,55 %
25.05.2016 21:00 13,8 C 91 % 1013,3 hPa 0,0 l/m 0,5 km/h (0 Bft) W-SW 0,00 h 0,025 mm 0,0 UV-I 0 W/m 12,3 C 13,8 C 1,4 km/h (1 Bft) 99,32 %
25.05.2016 22:00 12,7 C 93 % 1013,6 hPa 0,0 l/m 2,5 km/h (1 Bft) W-SW 0,00 h 0,000 mm 0,0 UV-I 0 W/m 11,6 C 12,7 C 3,5 km/h (1 Bft) 98,55 %
25.05.2016 23:00 12,4 C 94 % 1014,0 hPa 0,0 l/m 2,8 km/h (1 Bft) SW 0,00 h 0,000 mm 0,0 UV-I 0 W/m 11,5 C 12,4 C 4,3 km/h (1 Bft) 98,89 %
26.05.2016 00:00 12,2 C 94 % 1014,3 hPa 0,0 l/m 3,4 km/h (1 Bft) S 0,00 h 0,000 mm 0,0 UV-I 0 W/m 11,3 C 12,2 C 5,0 km/h (1 Bft) 98,95 %
26.05.2016 01:00 11,8 C 95 % 1014,3 hPa 0,0 l/m 4,5 km/h (1 Bft) S 0,00 h 0,000 mm 0,0 UV-I 0 W/m 11,0 C 11,8 C 6,2 km/h (2 Bft) 98,54 %
26.05.2016 02:00 11,6 C 95 % 1014,4 hPa 0,0 l/m 4,2 km/h (1 Bft) S 0,00 h 0,000 mm 0,0 UV-I 0 W/m 10,8 C 11,6 C 5,6 km/h (1 Bft) 99,05 %
26.05.2016 03:00 11,8 C 95 % 1014,5 hPa 0,0 l/m 3,9 km/h (1 Bft) S 0,00 h 0,000 mm 0,0 UV-I 0 W/m 11,1 C 11,8 C 5,9 km/h (2 Bft) 98,03 %
26.05.2016 04:00 11,3 C 95 % 1014,4 hPa 0,0 l/m 4,9 km/h (1 Bft) S 0,00 h 0,000 mm 0,0 UV-I 0 W/m 10,6 C 11,3 C 6,7 km/h (2 Bft) 98,94 %
26.05.2016 05:00 10,6 C 96 % 1014,8 hPa 0,0 l/m 4,3 km/h (1 Bft) S-SW 0,00 h 0,000 mm 0,0 UV-I 14 W/m 10,0 C 10,6 C 5,8 km/h (2 Bft) 98,39 %
26.05.2016 06:00 10,9 C 96 % 1015,2 hPa 0,0 l/m 4,3 km/h (1 Bft) S-SW 0,00 h 0,000 mm 0,0 UV-I 76 W/m 10,3 C 10,9 C 6,2 km/h (2 Bft) 98,49 %
26.05.2016 07:00 12,8 C 93 % 1015,5 hPa 0,0 l/m 5,3 km/h (1 Bft) SW 1,00 h 0,025 mm 0,7 UV-I 221 W/m 11,7 C 12,7 C 7,6 km/h (2 Bft) 98,29 %
26.05.2016 08:00 14,4 C 89 % 1015,7 hPa 0,0 l/m 3,0 km/h (1 Bft) W-SW 0,98 h 0,102 mm 1,4 UV-I 396 W/m 12,7 C 14,4 C 4,9 km/h (1 Bft) 99,15 %
26.05.2016 09:00 16,1 C 84 % 1015,7 hPa 0,0 l/m 2,6 km/h (1 Bft) N 0,83 h 0,203 mm 2,5 UV-I 533 W/m 13,5 C 16,1 C 4,2 km/h (1 Bft) 98,33 %
26.05.2016 10:00 17,6 C 81 % 1015,8 hPa 0,0 l/m 3,1 km/h (1 Bft) N-NO 0,97 h 0,305 mm 3,6 UV-I 686 W/m 14,2 C 17,6 C 5,5 km/h (1 Bft) 98,83 %
26.05.2016 11:00 18,7 C 76 % 1015,6 hPa 0,0 l/m 3,4 km/h (1 Bft) N-NO 1,00 h 0,381 mm 5,2 UV-I 883 W/m 14,3 C 18,7 C 5,8 km/h (1 Bft) 98,24 %
26.05.2016 12:00 19,4 C 70 % 1015,4 hPa 0,0 l/m 2,9 km/h (1 Bft) N-NO 1,00 h 0,483 mm 5,6 UV-I 883 W/m 13,9 C 19,4 C 5,6 km/h (1 Bft) 98,79 %
26.05.2016 13:00 20,7 C 60 % 1015,1 hPa 0,0 l/m 2,6 km/h (1 Bft) NW 1,00 h 0,482 mm 5,9 UV-I 876 W/m 12,7 C 20,7 C 4,7 km/h (1 Bft) 97,83 %
26.05.2016 14:00 21,7 C 55 % 1014,7 hPa 0,0 l/m 3,3 km/h (1 Bft) NW 1,00 h 0,534 mm 5,3 UV-I 827 W/m 12,1 C 21,7 C 5,7 km/h (1 Bft) 98,28 %
26.05.2016 15:00 22,5 C 53 % 1014,3 hPa 0,0 l/m 3,1 km/h (1 Bft) N-NO 1,00 h 0,508 mm 4,1 UV-I 734 W/m 12,4 C 22,4 C 5,5 km/h (1 Bft) 99,02 %
26.05.2016 16:00 22,9 C 51 % 1013,8 hPa 0,0 l/m 2,5 km/h (1 Bft) N-NW 1,00 h 0,457 mm 2,7 UV-I 607 W/m 12,2 C 22,9 C 4,8 km/h (1 Bft) 98,36 %
26.05.2016 17:00 23,1 C 49 % 1013,6 hPa 0,0 l/m 2,4 km/h (1 Bft) NO 1,00 h 0,381 mm 1,5 UV-I 454 W/m 11,8 C 23,1 C 4,2 km/h (1 Bft) 99,46 %
26.05.2016 18:00 22,9 C 49 % 1013,4 hPa 0,0 l/m 3,6 km/h (1 Bft) NO 1,00 h 0,305 mm 0,7 UV-I 290 W/m 11,7 C 22,9 C 5,4 km/h (1 Bft) 97,88 %
26.05.2016 19:00 22,5 C 50 % 1013,2 hPa 0,0 l/m 1,7 km/h (1 Bft) NO 0,70 h 0,203 mm 0,0 UV-I 118 W/m 11,4 C 22,5 C 2,8 km/h (1 Bft) 99,75 %
26.05.2016 20:00 19,2 C 64 % 1013,2 hPa 0,0 l/m 2,7 km/h (1 Bft) O-SO 0,02 h 0,101 mm 0,0 UV-I 15 W/m 12,3 C 19,2 C 4,0 km/h (1 Bft) 97,65 %
26.05.2016 21:00 17,0 C 76 % 1013,5 hPa 0,0 l/m 1,3 km/h (1 Bft) O-SO 0,00 h 0,026 mm 0,0 UV-I 0 W/m 12,7 C 17,0 C 2,3 km/h (1 Bft) 99,07 %
26.05.2016 22:00 15,5 C 80 % 1013,6 hPa 0,0 l/m 0,8 km/h (0 Bft) O-SO 0,00 h 0,000 mm 0,0 UV-I 0 W/m 12,1 C 15,5 C 1,5 km/h (1 Bft) 98,02 %
26.05.2016 23:00 14,8 C 83 % 1013,8 hPa 0,0 l/m 2,9 km/h (1 Bft) O-NO 0,00 h 0,000 mm 0,0 UV-I 0 W/m 11,9 C 14,8 C 3,9 km/h (1 Bft) 98,69 %
27.05.2016 00:00 13,8 C 87 % 1013,8 hPa 0,0 l/m 1,7 km/h (1 Bft) O-NO 0,00 h 0,000 mm 0,0 UV-I 0 W/m 11,7 C 13,8 C 2,6 km/h (1 Bft) 95,96 %
27.05.2016 01:00 14,2 C 85 % 1013,4 hPa 0,0 l/m 2,3 km/h (1 Bft) O-NO 0,00 h 0,000 mm 0,0 UV-I 0 W/m 11,8 C 14,2 C 3,7 km/h (1 Bft) 98,93 %
27.05.2016 02:00 13,0 C 90 % 1013,2 hPa 0,0 l/m 0,8 km/h (0 Bft) O-NO 0,00 h 0,000 mm 0,0 UV-I 0 W/m 11,4 C 13,0 C 1,5 km/h (1 Bft) 98,30 %
27.05.2016 03:00 12,1 C 92 % 1013,1 hPa 0,0 l/m 1,3 km/h (1 Bft) O-NO 0,00 h 0,000 mm 0,0 UV-I 0 W/m 10,8 C 12,1 C 2,0 km/h (1 Bft) 98,96 %
27.05.2016 04:00 11,7 C 94 % 1013,1 hPa 0,0 l/m 0,6 km/h (0 Bft) O-NO 0,00 h 0,000 mm 0,0 UV-I 0 W/m 10,7 C 11,7 C 1,3 km/h (1 Bft) 98,51 %
27.05.2016 05:00 12,0 C 94 % 1013,3 hPa 0,0 l/m 1,0 km/h (0 Bft) O-NO 0,25 h 0,000 mm 0,0 UV-I 24 W/m 11,0 C 12,0 C 1,8 km/h (1 Bft) 98,64 %
27.05.2016 06:00 13,4 C 91 % 1013,3 hPa 0,0 l/m 4,4 km/h (1 Bft) O-NO 0,23 h 0,025 mm 0,0 UV-I 92 W/m 12,0 C 13,3 C 6,3 km/h (2 Bft) 99,10 %
27.05.2016 07:00 15,0 C 86 % 1013,4 hPa 0,0 l/m 8,9 km/h (2 Bft) O-NO 0,83 h 0,051 mm 0,7 UV-I 231 W/m 12,6 C 13,6 C 13,1 km/h (3 Bft) 97,96 %
27.05.2016 08:00 16,7 C 82 % 1013,5 hPa 0,0 l/m 11,2 km/h (2 Bft) O-NO 0,92 h 0,127 mm 1,4 UV-I 376 W/m 13,6 C 14,6 C 15,4 km/h (3 Bft) 98,80 %
27.05.2016 09:00 18,2 C 78 % 1013,3 hPa 0,0 l/m 11,4 km/h (2 Bft) O-NO 0,98 h 0,229 mm 2,4 UV-I 472 W/m 14,2 C 16,2 C 15,6 km/h (3 Bft) 98,25 %
27.05.2016 10:00 19,5 C 76 % 1013,1 hPa 0,0 l/m 9,6 km/h (2 Bft) O-NO 1,00 h 0,305 mm 3,6 UV-I 623 W/m 15,2 C 18,3 C 14,0 km/h (3 Bft) 98,36 %
27.05.2016 11:00 21,1 C 72 % 1013,0 hPa 0,0 l/m 9,2 km/h (2 Bft) NO 1,00 h 0,381 mm 4,9 UV-I 761 W/m 15,9 C 20,1 C 13,5 km/h (3 Bft) 98,70 %
27.05.2016 12:00 22,5 C 68 % 1012,7 hPa 0,0 l/m 8,5 km/h (2 Bft) NO 0,97 h 0,482 mm 5,1 UV-I 754 W/m 16,3 C 21,7 C 12,3 km/h (3 Bft) 98,06 %
27.05.2016 13:00 23,6 C 66 % 1012,4 hPa 0,0 l/m 7,0 km/h (2 Bft) NO 1,00 h 0,483 mm 5,0 UV-I 775 W/m 16,8 C 23,3 C 10,6 km/h (2 Bft) 98,77 %
27.05.2016 14:00 24,8 C 62 % 1012,1 hPa 0,0 l/m 6,3 km/h (2 Bft) O-NO 1,00 h 0,508 mm 5,2 UV-I 850 W/m 16,8 C 24,5 C 9,8 km/h (2 Bft) 96,70 %
27.05.2016 15:00 25,5 C 56 % 1011,7 hPa 0,0 l/m 6,1 km/h (2 Bft) O-NO 1,00 h 0,559 mm 3,9 UV-I 733 W/m 16,1 C 25,4 C 9,4 km/h (2 Bft) 98,35 %
27.05.2016 16:00 26,0 C 50 % 1011,2 hPa 0,0 l/m 3,8 km/h (1 Bft) NO 1,00 h 0,482 mm 2,6 UV-I 582 W/m 14,7 C 26,0 C 5,7 km/h (1 Bft) 97,82 %
27.05.2016 17:00 26,1 C 51 % 1011,3 hPa 0,0 l/m 5,0 km/h (1 Bft) NO 0,98 h 0,407 mm 1,5 UV-I 471 W/m 15,3 C 26,0 C 7,5 km/h (2 Bft) 99,17 %
27.05.2016 18:00 25,4 C 55 % 1011,2 hPa 0,0 l/m 8,9 km/h (2 Bft) NO 1,00 h 0,355 mm 0,6 UV-I 287 W/m 15,6 C 24,8 C 12,4 km/h (3 Bft) 98,24 %
27.05.2016 19:00 23,8 C 63 % 1011,2 hPa 0,0 l/m 9,2 km/h (2 Bft) O 0,28 h 0,254 mm 0,0 UV-I 90 W/m 16,2 C 23,0 C 13,1 km/h (3 Bft) 99,32 %
27.05.2016 20:00 21,4 C 74 % 1011,2 hPa 0,0 l/m 11,6 km/h (2 Bft) O-NO 0,00 h 0,102 mm 0,0 UV-I 16 W/m 16,5 C 19,8 C 16,4 km/h (3 Bft) 97,82 %
27.05.2016 21:00 20,3 C 78 % 1011,2 hPa 0,0 l/m 9,1 km/h (2 Bft) O-NO 0,00 h 0,051 mm 0,0 UV-I 0 W/m 16,3 C 19,2 C 13,6 km/h (3 Bft) 99,65 %
27.05.2016 22:00 19,4 C 85 % 1012,5 hPa 0,6 l/m 7,4 km/h (2 Bft) W-SW 0,00 h 0,025 mm 0,0 UV-I 0 W/m 16,7 C 18,5 C 10,4 km/h (2 Bft) 97,62 %
27.05.2016 23:00 18,6 C 89 % 1012,2 hPa 0,0 l/m 5,7 km/h (1 Bft) S 0,00 h 0,025 mm 0,0 UV-I 0 W/m 16,8 C 18,3 C 8,8 km/h (2 Bft) 99,40 %
28.05.2016 00:00 17,5 C 92 % 1012,5 hPa 0,0 l/m 2,1 km/h (1 Bft) NO 0,00 h 0,000 mm 0,0 UV-I 0 W/m 16,2 C 17,5 C 3,3 km/h (1 Bft) 97,84 %
28.05.2016 01:00 16,6 C 93 % 1012,2 hPa 0,0 l/m 1,3 km/h (1 Bft) N-NO 0,00 h 0,000 mm 0,0 UV-I 0 W/m 15,5 C 16,6 C 2,3 km/h (1 Bft) 99,53 %
28.05.2016 02:00 15,8 C 94 % 1012,2 hPa 0,0 l/m 1,9 km/h (1 Bft) SW 0,00 h 0,000 mm 0,0 UV-I 0 W/m 14,8 C 15,8 C 2,7 km/h (1 Bft) 97,67 %
28.05.2016 03:00 15,4 C 91 % 1012,2 hPa 0,0 l/m 2,1 km/h (1 Bft) S-SW 0,00 h 0,000 mm 0,0 UV-I 0 W/m 14,0 C 15,4 C 3,4 km/h (1 Bft) 98,81 %
28.05.2016 04:00 14,2 C 94 % 1012,0 hPa 0,0 l/m 2,6 km/h (1 Bft) S-SW 0,00 h 0,000 mm 0,0 UV-I 0 W/m 13,2 C 14,2 C 5,1 km/h (1 Bft) 98,83 %
28.05.2016 05:00 13,7 C 94 % 1011,6 hPa 0,0 l/m 1,3 km/h (1 Bft) S 0,00 h 0,000 mm 0,0 UV-I 13 W/m 12,8 C 13,7 C 3,3 km/h (1 Bft) 98,39 %
28.05.2016 06:00 14,4 C 93 % 1011,5 hPa 0,0 l/m 0,1 km/h (0 Bft) N 0,00 h 0,000 mm 0,0 UV-I 55 W/m 13,4 C 14,4 C 0,5 km/h (0 Bft) 99,56 %
28.05.2016 07:00 16,0 C 89 % 1011,6 hPa 0,0 l/m 0,0 km/h (0 Bft) N 0,17 h 0,025 mm 0,6 UV-I 155 W/m 14,2 C 16,0 C 0,5 km/h (0 Bft) 98,68 %
28.05.2016 08:00 17,8 C 87 % 1011,7 hPa 0,0 l/m 1,7 km/h (1 Bft) N 0,43 h 0,077 mm 1,3 UV-I 325 W/m 15,5 C 17,8 C 3,4 km/h (1 Bft) 97,72 %
28.05.2016 09:00 19,0 C 83 % 1012,0 hPa 0,0 l/m 2,3 km/h (1 Bft) NO 0,63 h 0,177 mm 2,2 UV-I 383 W/m 16,0 C 19,0 C 3,8 km/h (1 Bft) 99,43 %
28.05.2016 10:00 21,0 C 75 % 1011,9 hPa 0,0 l/m 2,0 km/h (1 Bft) N-NW 0,85 h 0,229 mm 3,6 UV-I 606 W/m 16,3 C 21,0 C 3,6 km/h (1 Bft) 97,94 %
28.05.2016 11:00 22,2 C 71 % 1011,3 hPa 0,0 l/m 3,0 km/h (1 Bft) N-NO 0,83 h 0,356 mm 4,8 UV-I 711 W/m 16,6 C 22,2 C 5,1 km/h (1 Bft) 98,83 %
28.05.2016 12:00 23,2 C 68 % 1010,7 hPa 0,0 l/m 3,0 km/h (1 Bft) N-NW 0,85 h 0,457 mm 5,6 UV-I 811 W/m 17,0 C 23,2 C 5,2 km/h (1 Bft) 97,92 %
28.05.2016 13:00 24,3 C 65 % 1010,3 hPa 0,0 l/m 3,0 km/h (1 Bft) NW 1,00 h 0,508 mm 5,8 UV-I 921 W/m 17,2 C 24,3 C 5,2 km/h (1 Bft) 99,36 %
28.05.2016 14:00 24,8 C 60 % 1009,3 hPa 0,0 l/m 2,9 km/h (1 Bft) NW 1,00 h 0,559 mm 5,2 UV-I 817 W/m 16,5 C 24,8 C 5,2 km/h (1 Bft) 98,00 %
28.05.2016 15:00 25,6 C 57 % 1008,4 hPa 0,0 l/m 4,1 km/h (1 Bft) NO 1,00 h 0,533 mm 4,1 UV-I 726 W/m 16,5 C 25,5 C 6,5 km/h (2 Bft) 98,77 %
28.05.2016 16:00 25,7 C 59 % 1007,8 hPa 0,0 l/m 3,6 km/h (1 Bft) N-NO 0,95 h 0,483 mm 2,7 UV-I 571 W/m 17,1 C 25,6 C 6,3 km/h (2 Bft) 98,72 %
28.05.2016 17:00 25,4 C 60 % 1007,3 hPa 0,0 l/m 5,9 km/h (2 Bft) NO 0,98 h 0,381 mm 1,4 UV-I 421 W/m 16,9 C 25,2 C 9,2 km/h (2 Bft) 98,23 %
28.05.2016 18:00 25,0 C 59 % 1007,1 hPa 0,2 l/m 4,4 km/h (1 Bft) NO 0,37 h 0,304 mm 0,6 UV-I 198 W/m 16,4 C 24,9 C 6,5 km/h (2 Bft) 98,62 %
28.05.2016 19:00 22,2 C 80 % 1007,2 hPa 0,2 l/m 3,4 km/h (1 Bft) SO 0,07 h 0,153 mm 0,0 UV-I 55 W/m 18,5 C 22,1 C 5,3 km/h (1 Bft) 98,18 %
28.05.2016 20:00 17,5 C 84 % 1008,7 hPa 25,4 l/m 18,5 km/h (3 Bft) O 0,00 h 0,051 mm 0,0 UV-I 0 W/m 14,7 C 14,0 C 32,5 km/h (5 Bft) 98,56 %
28.05.2016 21:00 16,0 C 92 % 1008,7 hPa 2,4 l/m 8,4 km/h (2 Bft) S-SO 0,00 h 0,025 mm 0,0 UV-I 0 W/m 14,8 C 14,9 C 12,5 km/h (3 Bft) 98,44 %
28.05.2016 22:00 15,8 C 94 % 1009,1 hPa 0,0 l/m 4,4 km/h (1 Bft) O-NO 0,00 h 0,000 mm 0,0 UV-I 0 W/m 14,9 C 15,5 C 6,2 km/h (2 Bft) 99,05 %
28.05.2016 23:00 15,6 C 95 % 1008,8 hPa 0,0 l/m 3,6 km/h (1 Bft) O-NO 0,00 h 0,000 mm 0,0 UV-I 0 W/m 14,8 C 15,6 C 5,0 km/h (1 Bft) 98,12 %
29.05.2016 00:00 14,7 C 96 % 1007,8 hPa 0,0 l/m 2,1 km/h (1 Bft) O-NO 0,00 h 0,000 mm 0,0 UV-I 0 W/m 14,1 C 14,7 C 3,2 km/h (1 Bft) 99,03 %
29.05.2016 01:00 14,1 C 97 % 1006,5 hPa 0,2 l/m 0,9 km/h (0 Bft) SW 0,00 h 0,000 mm 0,0 UV-I 0 W/m 13,6 C 14,1 C 1,7 km/h (1 Bft) 98,04 %
29.05.2016 02:00 13,8 C 97 % 1006,4 hPa 0,0 l/m 5,2 km/h (1 Bft) O-NO 0,00 h 0,000 mm 0,0 UV-I 0 W/m 13,4 C 13,4 C 7,2 km/h (2 Bft) 98,58 %
29.05.2016 03:00 14,5 C 98 % 1006,7 hPa 0,0 l/m 8,4 km/h (2 Bft) O-NO 0,00 h 0,000 mm 0,0 UV-I 0 W/m 14,2 C 13,3 C 12,4 km/h (3 Bft) 98,26 %
29.05.2016 04:00 14,6 C 98 % 1006,0 hPa 0,0 l/m 5,7 km/h (1 Bft) NO 0,00 h 0,000 mm 0,0 UV-I 0 W/m 14,2 C 14,3 C 8,3 km/h (2 Bft) 98,59 %
29.05.2016 05:00 14,3 C 98 % 1005,5 hPa 0,0 l/m 4,5 km/h (1 Bft) NO 0,05 h 0,000 mm 0,0 UV-I 14 W/m 14,0 C 14,3 C 6,4 km/h (2 Bft) 98,25 %
29.05.2016 06:00 14,6 C 98 % 1005,4 hPa 0,0 l/m 5,7 km/h (1 Bft) NO 0,00 h 0,000 mm 0,0 UV-I 45 W/m 14,3 C 14,3 C 8,1 km/h (2 Bft) 99,14 %
29.05.2016 07:00 15,0 C 98 % 1004,9 hPa 0,0 l/m 8,3 km/h (2 Bft) O-NO 0,00 h 0,025 mm 0,0 UV-I 72 W/m 14,7 C 13,9 C 12,1 km/h (2 Bft) 98,18 %
29.05.2016 08:00 15,9 C 97 % 1004,9 hPa 0,0 l/m 7,5 km/h (2 Bft) O-NO 0,07 h 0,051 mm 0,8 UV-I 198 W/m 15,4 C 15,1 C 11,3 km/h (2 Bft) 98,15 %
29.05.2016 09:00 17,1 C 91 % 1005,0 hPa 0,0 l/m 7,7 km/h (2 Bft) O-NO 0,83 h 0,102 mm 1,9 UV-I 380 W/m 15,6 C 16,3 C 11,6 km/h (2 Bft) 98,04 %
29.05.2016 10:00 18,7 C 88 % 1004,6 hPa 0,0 l/m 5,5 km/h (1 Bft) NO 0,23 h 0,228 mm 2,2 UV-I 361 W/m 16,6 C 18,5 C 8,6 km/h (2 Bft) 98,55 %
29.05.2016 11:00 19,6 C 84 % 1004,3 hPa 0,0 l/m 5,9 km/h (2 Bft) NO 0,22 h 0,204 mm 3,1 UV-I 460 W/m 16,9 C 19,4 C 8,6 km/h (2 Bft) 98,06 %
29.05.2016 12:00 21,7 C 79 % 1003,9 hPa 0,0 l/m 6,4 km/h (2 Bft) NO 0,95 h 0,279 mm 5,9 UV-I 855 W/m 17,9 C 21,3 C 10,2 km/h (2 Bft) 98,93 %
29.05.2016 13:00 23,0 C 72 % 1003,1 hPa 0,0 l/m 12,3 km/h (3 Bft) O-NO 0,87 h 0,533 mm 5,1 UV-I 722 W/m 17,7 C 21,5 C 17,1 km/h (3 Bft) 98,07 %
29.05.2016 14:00 22,8 C 74 % 1002,6 hPa 0,0 l/m 13,6 km/h (3 Bft) O-NO 0,13 h 0,483 mm 2,7 UV-I 385 W/m 17,8 C 21,0 C 18,8 km/h (3 Bft) 98,93 %
29.05.2016 15:00 22,6 C 77 % 1002,1 hPa 0,0 l/m 17,2 km/h (3 Bft) O-NO 0,65 h 0,279 mm 3,0 UV-I 548 W/m 18,5 C 20,1 C 23,2 km/h (4 Bft) 97,56 %
29.05.2016 16:00 23,8 C 76 % 1001,1 hPa 0,0 l/m 19,6 km/h (3 Bft) O-NO 1,00 h 0,381 mm 2,7 UV-I 588 W/m 19,4 C 21,2 C 26,1 km/h (4 Bft) 99,14 %
29.05.2016 17:00 23,7 C 77 % 1000,5 hPa 0,0 l/m 20,5 km/h (4 Bft) O-NO 0,88 h 0,432 mm 1,3 UV-I 359 W/m 19,5 C 21,0 C 27,8 km/h (4 Bft) 97,71 %
29.05.2016 18:00 23,2 C 78 % 1000,1 hPa 0,0 l/m 18,5 km/h (3 Bft) O-NO 0,00 h 0,280 mm 0,6 UV-I 92 W/m 19,1 C 20,5 C 25,0 km/h (4 Bft) 98,35 %
29.05.2016 19:00 22,8 C 77 % 1000,1 hPa 0,0 l/m 17,6 km/h (3 Bft) O-NO 0,00 h 0,127 mm 0,0 UV-I 57 W/m 18,5 C 20,3 C 24,5 km/h (4 Bft) 97,68 %
29.05.2016 20:00 20,6 C 65 % 999,7 hPa 0,0 l/m 15,2 km/h (3 Bft) O 0,00 h 0,101 mm 0,0 UV-I 7 W/m 13,6 C 18,0 C 22,4 km/h (4 Bft) 99,18 %
29.05.2016 21:00 19,2 C 70 % 999,8 hPa 0,0 l/m 6,9 km/h (2 Bft) O-SO 0,00 h 0,076 mm 0,0 UV-I 0 W/m 13,6 C 18,7 C 10,7 km/h (2 Bft) 97,18 %
29.05.2016 22:00 19,1 C 68 % 1000,9 hPa 0,0 l/m 3,7 km/h (1 Bft) S-SO 0,00 h 0,026 mm 0,0 UV-I 0 W/m 13,0 C 19,1 C 6,3 km/h (2 Bft) 98,99 %
29.05.2016 23:00 18,6 C 73 % 1002,5 hPa 0,0 l/m 8,8 km/h (2 Bft) W-SW 0,00 h 0,025 mm 0,0 UV-I 0 W/m 13,6 C 17,5 C 13,6 km/h (3 Bft) 98,12 %
Min-Datum _ 24.05.16 26.05.16 29.05.16 - 23.05.16 - - - - - 23.05.16 23.05.16 23.05.16 27.05.16
_ Min-Zeit 01:43 17:55 20:36 - 01:16 - - - - - 22:57 20:54 01:16 00:02
Minimum _ 7,8 C 44 % 999,2 hPa - 0,0 km/h (0 Bft) - - - - - 6,6 C -1,0 C 0,0 km/h (0 Bft) 14,29 %
Max-Datum _ 27.05.16 29.05.16 26.05.16 28.05.16 28.05.16 - 28.05.16 27.05.16 28.05.16 29.05.16 29.05.16 27.05.16 28.05.16 23.05.16
_ Max-Zeit 17:23 02:28 08:43 20:20 20:08 - 07:40 15:00 12:52 11:40 17:54 17:23 20:08 00:03
Maximum _ 26,4 C 98 % 1015,9 hPa 25,4 l/m 38,6 km/h
O (5 Bft)
- 0,08 h 0,559 mm 6,6 UV-I 1222 W/m 20,0 C 26,4 C 78,9 km/h
O (9 Bft)
100,00 %
Durchschnitt _ 15,9 C 83 % 1010,3 hPa #54,4 l/m 7,9 km/h (2 Bft) W-SW #48:43 h #22,834 mm 2,6 UV-I 318 W/m 12,6 C 14,3 C 11,6 km/h (2 Bft) 98,53 %